Pacific Hope — 3FLH6 — position and weather

sailwx.info

Track history (hours):
 
Tides and Currents Weather Stations Pressure Air Temp Water Temp Dewpoint Dewpoint Depression Visibility Wind Speed Wind Dir Waves Ship Positions

Pacific Hope

Last reported at 2017-Feb-21 22:32 UTC. Time now 2017-Feb-27 01:55 UTC.
Position S 05°23' E 010°34'.

Length 169 m; draft 9 m.

Type: Cargo ship. MMSI: 351849000.

Date/timePositionNaut miles runAvg speedWind from/ knotsBaromVisibWave heightAir tempDewpointWater temp
2017-Feb-21 22:32S 05°23' E 010°34'1110.7
2017-Feb-21 21:33S 05°14' E 010°39'7 5.2
2017-Feb-21 20:16S 05°07' E 010°39'5 2.4
2017-Feb-21 18:19S 05°03' E 010°41'10 2.5
2017-Feb-21 14:26S 04°56' E 010°47'2 2.3
2017-Feb-21 13:33S 04°55' E 010°49'9 9.1
2017-Feb-21 12:33S 04°57' E 010°58'1110.7
2017-Feb-21 11:33S 04°57' E 011°09'1110.8
2017-Feb-21 10:33S 04°57' E 011°19'1010.3
2017-Feb-21 09:33S 04°56' E 011°30'1010.4
2017-Feb-21 08:33S 04°51' E 011°39'10 9.9
2017-Feb-21 07:33S 04°46' E 011°47'2 0.1
2017-Feb-20 13:21S 04°47' E 011°50'  
2017-Feb-17 19:33S 04°47' E 011°50'0 0.0
2017-Feb-17 18:33S 04°47' E 011°50'0 0.0
2017-Feb-17 17:30S 04°47' E 011°50'0 0.0
2017-Feb-17 16:30S 04°47' E 011°50'0 0.0
2017-Feb-17 15:30S 04°47' E 011°50'0 0.0
2017-Feb-17 05:12S 04°47' E 011°50'0 0.0
2017-Feb-16 17:33S 04°47' E 011°50'0 0.0
2017-Feb-16 16:27S 04°47' E 011°50'0 0.0
2017-Feb-16 06:12S 04°47' E 011°50'0 0.0
2017-Feb-16 05:21S 04°47' E 011°50'0 0.0
2017-Feb-16 04:33S 04°47' E 011°50'0 0.0
2017-Feb-15 06:24S 04°47' E 011°50'0 0.0
2017-Feb-15 05:24S 04°47' E 011°50'0 0.0
2017-Feb-15 03:33S 04°47' E 011°50'  
2017-Feb-12 21:09S 04°47' E 011°50'0 0.0
2017-Feb-12 20:33S 04°47' E 011°50'0 0.0
2017-Feb-12 19:30S 04°47' E 011°50'0 0.0
2017-Feb-12 18:27S 04°47' E 011°50'0 0.0
2017-Feb-12 17:09S 04°47' E 011°50'0 0.0
2017-Feb-12 16:33S 04°47' E 011°50'0 0.0
2017-Feb-12 15:33S 04°47' E 011°50'  
Track history (hours):
 
Tides and Currents Weather Stations Pressure Air Temp Water Temp Dewpoint Dewpoint Depression Visibility Wind Speed Wind Dir Waves Ship Positions

Pacific Hope

Last reported at 2017-Feb-21 22:32 UTC. Time now 2017-Feb-27 01:55 UTC.
Position S 05°23' E 010°34'.

Length 169 m; draft 9 m.

Type: Cargo ship. MMSI: 351849000.

Date/timePositionNaut miles runAvg speedWind from/ knotsBaromVisibWave heightAir tempDewpointWater temp
2017-Feb-21 22:32S 05°23' E 010°34'1110.7
2017-Feb-21 21:33S 05°14' E 010°39'7 5.2
2017-Feb-21 20:16S 05°07' E 010°39'5 2.4
2017-Feb-21 18:19S 05°03' E 010°41'10 2.5
2017-Feb-21 14:26S 04°56' E 010°47'2 2.3
2017-Feb-21 13:33S 04°55' E 010°49'9 9.1
2017-Feb-21 12:33S 04°57' E 010°58'1110.7
2017-Feb-21 11:33S 04°57' E 011°09'1110.8
2017-Feb-21 10:33S 04°57' E 011°19'1010.3
2017-Feb-21 09:33S 04°56' E 011°30'1010.4
2017-Feb-21 08:33S 04°51' E 011°39'10 9.9
2017-Feb-21 07:33S 04°46' E 011°47'2 0.1
2017-Feb-20 13:21S 04°47' E 011°50'  
2017-Feb-17 19:33S 04°47' E 011°50'0 0.0
2017-Feb-17 18:33S 04°47' E 011°50'0 0.0
2017-Feb-17 17:30S 04°47' E 011°50'0 0.0
2017-Feb-17 16:30S 04°47' E 011°50'0 0.0
2017-Feb-17 15:30S 04°47' E 011°50'0 0.0
2017-Feb-17 05:12S 04°47' E 011°50'0 0.0
2017-Feb-16 17:33S 04°47' E 011°50'0 0.0
2017-Feb-16 16:27S 04°47' E 011°50'0 0.0
2017-Feb-16 06:12S 04°47' E 011°50'0 0.0
2017-Feb-16 05:21S 04°47' E 011°50'0 0.0
2017-Feb-16 04:33S 04°47' E 011°50'0 0.0
2017-Feb-15 06:24S 04°47' E 011°50'0 0.0
2017-Feb-15 05:24S 04°47' E 011°50'0 0.0
2017-Feb-15 03:33S 04°47' E 011°50'  
2017-Feb-12 21:09S 04°47' E 011°50'0 0.0
2017-Feb-12 20:33S 04°47' E 011°50'0 0.0
2017-Feb-12 19:30S 04°47' E 011°50'0 0.0
2017-Feb-12 18:27S 04°47' E 011°50'0 0.0
2017-Feb-12 17:09S 04°47' E 011°50'0 0.0
2017-Feb-12 16:33S 04°47' E 011°50'0 0.0
2017-Feb-12 15:33S 04°47' E 011°50'  

Dump ship's entire track history